createdAt,value
2018-04-29T00:02:08.723Z,5.30
2018-04-29T00:04:35.412Z,5.20
2018-04-29T00:07:02.272Z,6.00
2018-04-29T00:09:29.030Z,6.20
2018-04-29T00:11:55.783Z,5.27
2018-04-29T00:14:22.474Z,5.80
2018-04-29T00:16:49.192Z,6.40
2018-04-29T00:19:15.968Z,6.30
2018-04-29T00:21:42.677Z,6.07
2018-04-29T00:24:09.372Z,6.00
2018-04-29T00:26:36.030Z,6.20
2018-04-29T00:29:02.757Z,6.33
2018-04-29T00:31:29.488Z,5.90
2018-04-29T00:33:56.357Z,6.80
2018-04-29T00:36:23.144Z,5.53
2018-04-29T00:38:49.891Z,5.80
2018-04-29T00:41:16.806Z,5.10
2018-04-29T00:43:44.029Z,6.00
2018-04-29T00:46:10.951Z,5.57
2018-04-29T00:48:37.678Z,5.30
2018-04-29T00:51:04.364Z,5.43
2018-04-29T00:53:31.158Z,5.33
2018-04-29T00:55:58.095Z,5.70
2018-04-29T00:58:24.834Z,5.47
2018-04-29T01:00:51.548Z,5.00
2018-04-29T01:03:18.365Z,5.40
2018-04-29T01:05:45.913Z,5.27
2018-04-29T01:08:12.793Z,5.30
2018-04-29T01:10:39.525Z,5.10
2018-04-29T01:13:06.279Z,4.90
2018-04-29T01:15:32.978Z,5.13
2018-04-29T01:17:59.676Z,4.87
2018-04-29T01:20:26.407Z,4.63
2018-04-29T01:22:53.137Z,5.53
2018-04-29T01:25:19.903Z,4.73
2018-04-29T01:27:46.853Z,5.30
2018-04-29T01:30:13.568Z,5.20
2018-04-29T01:32:40.303Z,5.50
2018-04-29T01:35:07.069Z,4.77
2018-04-29T01:37:33.793Z,4.90
2018-04-29T01:40:00.598Z,5.33
2018-04-29T01:42:27.301Z,5.80
2018-04-29T01:44:54.014Z,5.93
2018-04-29T01:47:20.730Z,6.00
2018-04-29T01:49:47.497Z,5.50
2018-04-29T01:52:14.375Z,6.20
2018-04-29T01:54:41.152Z,6.13
2018-04-29T01:57:07.974Z,5.90
2018-04-29T01:59:34.809Z,5.80
2018-04-29T02:02:01.624Z,5.10
2018-04-29T02:04:28.323Z,6.30
2018-04-29T02:06:55.010Z,6.00
2018-04-29T02:09:21.696Z,6.73
2018-04-29T02:11:48.453Z,5.77
2018-04-29T02:14:15.219Z,6.87
2018-04-29T02:16:41.917Z,6.47
2018-04-29T02:19:08.639Z,6.97
2018-04-29T02:21:35.376Z,7.40
2018-04-29T02:24:02.090Z,7.17
2018-04-29T02:26:28.863Z,7.10
2018-04-29T02:28:55.841Z,6.93
2018-04-29T02:31:22.763Z,7.97
2018-04-29T02:33:49.445Z,7.17
2018-04-29T02:36:16.309Z,8.00
2018-04-29T02:38:43.180Z,8.10
2018-04-29T02:41:09.937Z,7.30
2018-04-29T02:43:36.648Z,8.50
2018-04-29T02:46:03.364Z,8.67
2018-04-29T02:48:30.186Z,9.40
2018-04-29T02:50:56.929Z,10.00
2018-04-29T02:53:23.604Z,8.83
2018-04-29T02:55:50.374Z,9.80
2018-04-29T02:58:17.073Z,9.53
2018-04-29T03:00:43.838Z,9.87
2018-04-29T03:03:10.570Z,9.77
2018-04-29T03:05:37.273Z,10.77
2018-04-29T03:08:04.043Z,10.40
2018-04-29T03:10:30.836Z,10.60
2018-04-29T03:12:57.728Z,10.60
2018-04-29T03:15:24.496Z,10.27
2018-04-29T03:17:51.319Z,11.60
2018-04-29T03:20:18.071Z,12.30
2018-04-29T03:22:44.859Z,10.50
2018-04-29T03:25:11.591Z,10.47
2018-04-29T03:27:38.329Z,11.77
2018-04-29T03:30:05.078Z,11.27
2018-04-29T03:32:31.772Z,10.63
2018-04-29T03:34:59.148Z,10.40
2018-04-29T03:37:26.022Z,10.20
2018-04-29T03:39:52.834Z,11.23
2018-04-29T03:42:19.781Z,10.40
2018-04-29T03:44:46.499Z,10.93
2018-04-29T03:47:13.184Z,10.00
2018-04-29T03:49:39.912Z,10.53
2018-04-29T03:52:06.673Z,9.60
2018-04-29T03:54:33.453Z,10.13
2018-04-29T03:57:05.999Z,10.07
2018-04-29T03:59:38.661Z,10.63
2018-04-29T04:02:11.457Z,10.80
2018-04-29T04:04:38.177Z,11.30
2018-04-29T04:07:04.889Z,11.07
2018-04-29T04:09:31.781Z,10.37
2018-04-29T04:11:58.509Z,10.50
2018-04-29T04:14:25.219Z,10.30
2018-04-29T04:16:51.969Z,10.93
2018-04-29T04:19:18.692Z,12.27
2018-04-29T04:21:45.491Z,11.90
2018-04-29T04:24:12.347Z,12.23
2018-04-29T04:26:39.083Z,11.30
2018-04-29T04:29:05.870Z,11.33
2018-04-29T04:31:32.694Z,12.27
2018-04-29T04:33:59.541Z,11.30
2018-04-29T04:36:26.396Z,10.90
2018-04-29T04:38:53.134Z,11.53
2018-04-29T04:41:19.864Z,11.53
2018-04-29T04:43:46.608Z,10.97
2018-04-29T04:46:13.299Z,11.57
2018-04-29T04:48:39.970Z,10.60
2018-04-29T04:51:06.724Z,11.33
2018-04-29T04:53:33.717Z,10.70
2018-04-29T04:56:00.648Z,10.90
2018-04-29T04:58:27.511Z,11.27
2018-04-29T05:00:54.275Z,11.90
2018-04-29T05:03:21.042Z,11.07
2018-04-29T05:05:47.812Z,11.20
2018-04-29T05:08:14.747Z,11.47
2018-04-29T05:10:41.576Z,11.10
2018-04-29T05:13:08.336Z,11.50
2018-04-29T05:15:35.094Z,11.30
2018-04-29T05:18:01.854Z,10.27
2018-04-29T05:20:28.568Z,10.60
2018-04-29T05:22:55.372Z,10.13
2018-04-29T05:25:22.232Z,10.77
2018-04-29T05:27:48.961Z,10.10
2018-04-29T05:30:15.824Z,9.10
2018-04-29T05:32:42.660Z,10.60
2018-04-29T05:35:09.595Z,10.10
2018-04-29T05:37:37.360Z,9.90
2018-04-29T05:40:04.179Z,9.60
2018-04-29T05:42:31.357Z,10.43
2018-04-29T05:44:58.041Z,9.70
2018-04-29T05:47:24.773Z,10.50
2018-04-29T05:49:51.616Z,10.10
2018-04-29T05:52:18.827Z,9.90
2018-04-29T05:54:45.709Z,8.93
2018-04-29T05:57:12.546Z,8.80
2018-04-29T05:59:39.618Z,8.70
2018-04-29T06:02:06.469Z,9.00
2018-04-29T06:04:33.258Z,9.10
2018-04-29T06:06:59.988Z,8.67
2018-04-29T06:09:26.714Z,9.00
2018-04-29T06:11:53.694Z,7.97
2018-04-29T06:14:20.415Z,9.90
2018-04-29T06:16:47.211Z,8.87
2018-04-29T06:19:13.919Z,8.87
2018-04-29T06:21:40.653Z,8.40
2018-04-29T06:24:07.335Z,7.47
2018-04-29T06:26:34.410Z,7.60
2018-04-29T06:29:02.048Z,7.57
2018-04-29T06:31:28.772Z,6.70
2018-04-29T06:33:55.475Z,7.03
2018-04-29T06:36:22.168Z,7.50
2018-04-29T06:38:49.001Z,7.70
2018-04-29T06:41:15.772Z,6.50
2018-04-29T06:43:42.534Z,6.70
2018-04-29T06:46:09.369Z,6.57
2018-04-29T06:48:36.104Z,6.20
2018-04-29T06:51:02.833Z,6.50
2018-04-29T06:53:29.542Z,6.77
2018-04-29T06:55:56.724Z,6.83
2018-04-29T06:58:23.468Z,5.90
2018-04-29T07:00:50.211Z,5.60
2018-04-29T07:03:17.181Z,5.50
2018-04-29T07:05:43.973Z,6.73
2018-04-29T07:08:10.837Z,6.47
2018-04-29T07:10:37.486Z,7.27
2018-04-29T07:13:04.253Z,6.23
2018-04-29T07:15:30.954Z,6.60
2018-04-29T07:17:57.777Z,5.70
2018-04-29T07:20:24.488Z,6.60
2018-04-29T07:22:51.177Z,6.30
2018-04-29T07:25:17.968Z,6.70
2018-04-29T07:27:44.844Z,6.53
2018-04-29T07:30:11.610Z,6.10
2018-04-29T07:32:38.299Z,6.10
2018-04-29T07:35:05.035Z,5.93
2018-04-29T07:37:31.756Z,6.10
2018-04-29T07:39:58.493Z,5.93
2018-04-29T07:42:25.217Z,5.63
2018-04-29T07:44:51.918Z,6.27
2018-04-29T07:47:18.865Z,5.50
2018-04-29T07:49:45.704Z,5.97
2018-04-29T07:52:12.576Z,5.87
2018-04-29T07:54:39.326Z,5.33
2018-04-29T07:57:06.208Z,5.93
2018-04-29T07:59:32.944Z,5.80
2018-04-29T08:01:59.696Z,6.17
2018-04-29T08:04:27.281Z,5.60
2018-04-29T08:06:54.064Z,5.67
2018-04-29T08:09:20.813Z,5.87
2018-04-29T08:11:47.527Z,4.90
2018-04-29T08:14:14.261Z,5.20
2018-04-29T08:16:40.941Z,5.80
2018-04-29T08:19:07.708Z,4.83
2018-04-29T08:21:34.519Z,4.90
2018-04-29T08:24:01.568Z,5.90
2018-04-29T08:26:28.260Z,5.97
2018-04-29T08:28:55.013Z,5.90
2018-04-29T08:31:21.864Z,5.20
2018-04-29T08:33:48.624Z,5.10
2018-04-29T08:36:16.340Z,4.80
2018-04-29T08:38:42.980Z,4.90
2018-04-29T08:41:09.677Z,5.37
2018-04-29T08:43:36.379Z,5.10
2018-04-29T08:46:03.090Z,5.50
2018-04-29T08:48:29.824Z,5.93
2018-04-29T08:50:56.548Z,5.50
2018-04-29T08:53:23.216Z,4.60
2018-04-29T08:55:50.175Z,4.90
2018-04-29T08:58:16.932Z,5.23
2018-04-29T09:00:43.697Z,5.33
2018-04-29T09:03:10.587Z,4.67
2018-04-29T09:05:37.297Z,5.00
2018-04-29T09:08:04.014Z,5.50
2018-04-29T09:10:30.767Z,5.63
2018-04-29T09:12:57.491Z,4.70
2018-04-29T09:15:24.271Z,4.77
2018-04-29T09:17:51.167Z,5.93
2018-04-29T09:20:17.961Z,4.57
2018-04-29T09:22:44.705Z,4.57
2018-04-29T09:25:11.451Z,4.63
2018-04-29T09:27:38.149Z,5.20
2018-04-29T09:30:04.871Z,5.10
2018-04-29T09:32:31.730Z,5.60
2018-04-29T09:34:58.440Z,4.80
2018-04-29T09:37:25.287Z,5.03
2018-04-29T09:39:51.994Z,5.10
2018-04-29T09:42:18.760Z,5.07
2018-04-29T09:44:45.558Z,5.00
2018-04-29T09:47:12.239Z,3.93
2018-04-29T09:49:39.278Z,4.43
2018-04-29T09:52:06.012Z,4.23
2018-04-29T09:54:32.758Z,5.40
2018-04-29T09:56:59.589Z,4.97
2018-04-29T09:59:26.355Z,4.33
2018-04-29T10:01:53.079Z,4.03
2018-04-29T10:04:19.788Z,4.27
2018-04-29T10:06:46.474Z,4.33
2018-04-29T10:09:13.188Z,4.17
2018-04-29T10:11:39.909Z,5.10
2018-04-29T10:14:06.673Z,4.80
2018-04-29T10:16:33.455Z,5.00
2018-04-29T10:19:00.204Z,4.80
2018-04-29T10:21:26.928Z,4.50
2018-04-29T10:23:53.638Z,3.73
2018-04-29T10:26:20.435Z,4.13
2018-04-29T10:28:47.142Z,4.10
2018-04-29T10:31:13.896Z,3.60
2018-04-29T10:33:40.590Z,3.10
2018-04-29T10:36:07.258Z,3.73
2018-04-29T10:38:34.845Z,4.33
2018-04-29T10:41:01.595Z,3.90
2018-04-29T10:43:28.324Z,3.40
2018-04-29T10:45:55.036Z,3.70
2018-04-29T10:48:21.769Z,3.70
2018-04-29T10:50:48.489Z,4.00
2018-04-29T10:53:15.177Z,4.57
2018-04-29T10:55:41.917Z,4.40
2018-04-29T10:58:08.685Z,3.90
2018-04-29T11:00:35.493Z,4.40
2018-04-29T11:03:02.210Z,4.20
2018-04-29T11:05:28.971Z,3.90
2018-04-29T11:07:55.665Z,3.50
2018-04-29T11:10:22.462Z,4.20
2018-04-29T11:12:49.192Z,4.30
2018-04-29T11:15:15.927Z,3.83
2018-04-29T11:17:42.844Z,3.97
2018-04-29T11:20:09.603Z,3.60
2018-04-29T11:22:36.284Z,3.50
2018-04-29T11:25:03.059Z,3.60
2018-04-29T11:27:29.731Z,3.80
2018-04-29T11:29:56.681Z,4.00
2018-04-29T11:32:23.487Z,3.37
2018-04-29T11:34:50.282Z,3.30
2018-04-29T11:37:16.967Z,3.83
2018-04-29T11:39:43.719Z,3.87
2018-04-29T11:42:10.456Z,3.60
2018-04-29T11:44:37.153Z,3.27
2018-04-29T11:47:03.865Z,3.63
2018-04-29T11:49:30.559Z,3.93
2018-04-29T11:51:57.304Z,4.30
2018-04-29T11:54:24.002Z,3.57
2018-04-29T11:56:50.703Z,3.70
2018-04-29T11:59:17.421Z,3.80
2018-04-29T12:01:44.213Z,4.90
2018-04-29T12:04:11.037Z,3.50
2018-04-29T12:06:38.005Z,3.80
2018-04-29T12:09:04.693Z,3.90
2018-04-29T12:11:31.548Z,3.63
2018-04-29T12:13:58.243Z,4.03
2018-04-29T12:16:25.000Z,4.10
2018-04-29T12:18:51.738Z,4.40
2018-04-29T12:21:18.500Z,3.57
2018-04-29T12:23:45.189Z,4.23
2018-04-29T12:26:12.022Z,3.40
2018-04-29T12:28:39.364Z,3.60
2018-04-29T12:31:06.139Z,3.97
2018-04-29T12:33:32.980Z,3.53
2018-04-29T12:35:59.672Z,3.40
2018-04-29T12:38:26.508Z,3.80
2018-04-29T12:40:53.224Z,3.40
2018-04-29T12:43:19.926Z,4.00
2018-04-29T12:45:46.660Z,3.73
2018-04-29T12:48:13.342Z,3.37
2018-04-29T12:50:40.127Z,4.00
2018-04-29T12:53:07.164Z,3.60
2018-04-29T12:55:33.904Z,4.60
2018-04-29T12:58:00.688Z,3.60
2018-04-29T13:00:27.467Z,3.60
2018-04-29T13:02:54.253Z,3.43
2018-04-29T13:05:21.034Z,3.70
2018-04-29T13:07:47.853Z,4.10
2018-04-29T13:10:14.625Z,3.30
2018-04-29T13:12:41.332Z,3.23
2018-04-29T13:15:08.079Z,3.33
2018-04-29T13:17:34.875Z,4.10
2018-04-29T13:20:01.874Z,3.53
2018-04-29T13:22:28.637Z,3.60
2018-04-29T13:24:55.357Z,4.03
2018-04-29T13:27:22.176Z,3.57
2018-04-29T13:29:49.016Z,3.47
2018-04-29T13:32:15.725Z,3.90
2018-04-29T13:34:42.488Z,3.70
2018-04-29T13:37:09.187Z,3.17
2018-04-29T13:39:36.034Z,3.10
2018-04-29T13:42:02.910Z,3.47
2018-04-29T13:44:29.717Z,3.33
2018-04-29T13:46:56.522Z,3.70
2018-04-29T13:49:23.426Z,3.50
2018-04-29T13:51:50.226Z,3.50
2018-04-29T13:54:16.960Z,3.17
2018-04-29T13:56:43.692Z,3.30
2018-04-29T13:59:10.405Z,3.43
2018-04-29T14:01:37.542Z,3.03
2018-04-29T14:04:04.213Z,3.60
2018-04-29T14:06:30.949Z,3.60
2018-04-29T14:08:57.718Z,3.00
2018-04-29T14:11:24.428Z,4.03
2018-04-29T14:13:51.233Z,3.50
2018-04-29T14:16:18.192Z,3.40
2018-04-29T14:18:44.945Z,3.60
2018-04-29T14:21:11.769Z,4.00
2018-04-29T14:23:39.164Z,3.60
2018-04-29T14:26:06.074Z,3.63
2018-04-29T14:28:32.806Z,3.40
2018-04-29T14:30:59.540Z,3.10
2018-04-29T14:33:26.245Z,4.27
2018-04-29T14:35:53.148Z,2.80
2018-04-29T14:38:19.848Z,3.20
2018-04-29T14:40:46.567Z,3.37
2018-04-29T14:43:13.310Z,3.43
2018-04-29T14:45:40.468Z,3.00
2018-04-29T14:48:07.206Z,3.10
2018-04-29T14:50:34.035Z,3.17
2018-04-29T14:53:01.191Z,3.43
2018-04-29T14:55:28.025Z,2.70
2018-04-29T14:57:55.148Z,3.23
2018-04-29T15:00:21.864Z,3.87
2018-04-29T15:02:48.690Z,3.67
2018-04-29T15:05:15.358Z,3.50
2018-04-29T15:07:42.920Z,3.20
2018-04-29T15:10:09.624Z,3.10
2018-04-29T15:12:36.547Z,2.97
2018-04-29T15:15:03.371Z,3.53
2018-04-29T15:17:30.182Z,3.27
2018-04-29T15:19:56.854Z,3.33
2018-04-29T15:22:23.554Z,3.10
2018-04-29T15:24:50.316Z,3.60
2018-04-29T15:27:17.119Z,3.57
2018-04-29T15:29:44.040Z,3.67
2018-04-29T15:32:10.744Z,3.47
2018-04-29T15:34:37.790Z,3.63
2018-04-29T15:37:04.489Z,3.50
2018-04-29T15:39:31.310Z,3.73
2018-04-29T15:41:58.012Z,3.30
2018-04-29T15:44:24.716Z,3.27
2018-04-29T15:46:52.395Z,3.20
2018-04-29T15:49:19.162Z,3.40
2018-04-29T15:51:45.951Z,3.10
2018-04-29T15:54:12.843Z,3.27
2018-04-29T15:56:40.511Z,3.60
2018-04-29T15:59:07.249Z,3.43
2018-04-29T16:01:34.022Z,3.10
2018-04-29T16:04:00.695Z,2.90
2018-04-29T16:06:27.413Z,3.53
2018-04-29T16:08:54.132Z,3.23
2018-04-29T16:11:20.859Z,3.60
2018-04-29T16:13:47.530Z,3.37
2018-04-29T16:16:14.213Z,3.70
2018-04-29T16:18:40.942Z,3.90
2018-04-29T16:21:07.719Z,4.20
2018-04-29T16:23:34.568Z,3.60
2018-04-29T16:26:01.349Z,3.97
2018-04-29T16:28:28.071Z,3.60
2018-04-29T16:30:54.744Z,3.80
2018-04-29T16:33:21.484Z,3.40
2018-04-29T16:35:48.367Z,4.23
2018-04-29T16:38:15.139Z,3.97
2018-04-29T16:40:41.886Z,3.43
2018-04-29T16:43:08.631Z,3.70
2018-04-29T16:45:35.499Z,3.67
2018-04-29T16:48:02.284Z,3.97
2018-04-29T16:50:29.063Z,3.67
2018-04-29T16:52:55.806Z,3.40
2018-04-29T16:55:22.562Z,3.73
2018-04-29T16:57:49.743Z,4.67
2018-04-29T17:00:16.476Z,3.97
2018-04-29T17:02:44.078Z,3.60
2018-04-29T17:05:10.955Z,3.80
2018-04-29T17:07:37.724Z,3.83
2018-04-29T17:10:04.460Z,3.33
2018-04-29T17:12:31.236Z,3.73
2018-04-29T17:14:57.962Z,3.77
2018-04-29T17:17:24.700Z,3.83
2018-04-29T17:19:51.494Z,3.37
2018-04-29T17:22:18.228Z,4.33
2018-04-29T17:24:45.075Z,3.30
2018-04-29T17:27:11.907Z,3.10
2018-04-29T17:29:38.716Z,3.67
2018-04-29T17:32:05.445Z,3.60
2018-04-29T17:34:32.139Z,3.50
2018-04-29T17:36:58.929Z,4.33
2018-04-29T17:39:25.720Z,3.33
2018-04-29T17:41:52.468Z,3.23
2018-04-29T17:44:19.668Z,3.63
2018-04-29T17:46:46.440Z,3.97
2018-04-29T17:49:13.154Z,4.10
2018-04-29T17:51:39.960Z,4.53
2018-04-29T17:54:06.732Z,3.73
2018-04-29T17:56:33.543Z,4.00
2018-04-29T17:59:00.449Z,3.60
2018-04-29T18:01:27.377Z,3.50
2018-04-29T18:03:54.146Z,4.03
2018-04-29T18:06:21.875Z,3.90
2018-04-29T18:08:48.643Z,3.60
2018-04-29T18:11:15.330Z,3.77
2018-04-29T18:13:42.050Z,4.20
2018-04-29T18:16:08.899Z,3.70
2018-04-29T18:18:37.740Z,3.67
2018-04-29T18:21:05.704Z,4.60
2018-04-29T18:23:32.411Z,4.03
2018-04-29T18:25:59.156Z,3.50
2018-04-29T18:28:25.974Z,4.10
2018-04-29T18:30:52.737Z,3.80
2018-04-29T18:33:19.503Z,3.87
2018-04-29T18:35:46.249Z,4.30
2018-04-29T18:38:13.068Z,4.60
2018-04-29T18:40:39.829Z,4.70
2018-04-29T18:43:06.798Z,5.20
2018-04-29T18:45:33.514Z,4.83
2018-04-29T18:48:00.276Z,4.73
2018-04-29T18:50:27.072Z,6.00
2018-04-29T18:52:53.766Z,4.83
2018-04-29T18:55:20.549Z,4.80
2018-04-29T18:57:47.449Z,4.73
2018-04-29T19:00:14.423Z,4.53
2018-04-29T19:02:41.291Z,5.00
2018-04-29T19:05:07.984Z,5.83
2018-04-29T19:07:34.674Z,4.73
2018-04-29T19:10:01.343Z,5.17
2018-04-29T19:12:28.035Z,4.70
2018-04-29T19:14:54.717Z,5.33
2018-04-29T19:17:21.415Z,5.00
2018-04-29T19:19:48.136Z,5.80
2018-04-29T19:22:14.866Z,5.30
2018-04-29T19:24:41.603Z,5.60
2018-04-29T19:27:08.358Z,5.43
2018-04-29T19:29:35.083Z,5.07
2018-04-29T19:32:02.242Z,5.43
2018-04-29T19:34:28.962Z,5.43
2018-04-29T19:36:55.676Z,5.13
2018-04-29T19:39:22.790Z,5.00
2018-04-29T19:41:49.493Z,5.10
2018-04-29T19:44:16.208Z,4.80
2018-04-29T19:46:43.027Z,5.07
2018-04-29T19:49:10.139Z,5.57
2018-04-29T19:51:36.847Z,4.80
2018-04-29T19:54:03.587Z,4.73
2018-04-29T19:56:30.421Z,5.10
2018-04-29T19:58:57.136Z,5.30
2018-04-29T20:01:23.876Z,5.60
2018-04-29T20:03:50.633Z,4.97
2018-04-29T20:06:17.579Z,4.70
2018-04-29T20:08:44.445Z,5.73
2018-04-29T20:11:11.225Z,6.10
2018-04-29T20:13:38.011Z,5.20
2018-04-29T20:16:04.860Z,5.67
2018-04-29T20:18:31.622Z,5.17
2018-04-29T20:20:58.366Z,5.60
2018-04-29T20:23:25.175Z,5.13
2018-04-29T20:25:51.938Z,6.70
2018-04-29T20:28:18.692Z,5.30
2018-04-29T20:30:45.522Z,5.93
2018-04-29T20:33:12.296Z,6.10
2018-04-29T20:35:39.017Z,6.43
2018-04-29T20:38:05.699Z,6.47
2018-04-29T20:40:32.427Z,6.30
2018-04-29T20:42:59.281Z,6.50
2018-04-29T20:45:26.026Z,6.77
2018-04-29T20:47:52.703Z,6.30
2018-04-29T20:50:19.394Z,5.40
2018-04-29T20:52:46.150Z,5.57
2018-04-29T20:55:12.975Z,5.27
2018-04-29T20:57:39.692Z,5.30
2018-04-29T21:00:06.358Z,4.67
2018-04-29T21:02:33.291Z,5.17
2018-04-29T21:04:59.999Z,5.93
2018-04-29T21:07:26.699Z,5.23
2018-04-29T21:09:53.579Z,5.20
2018-04-29T21:12:20.455Z,5.53
2018-04-29T21:14:47.336Z,5.30
2018-04-29T21:17:14.022Z,5.70
2018-04-29T21:19:41.051Z,5.37
2018-04-29T21:22:07.792Z,5.50
2018-04-29T21:24:34.602Z,4.97
2018-04-29T21:27:01.332Z,5.70
2018-04-29T21:29:28.074Z,5.37
2018-04-29T21:31:54.772Z,5.37
2018-04-29T21:34:21.609Z,5.00
2018-04-29T21:36:48.763Z,5.63
2018-04-29T21:39:15.507Z,5.80
2018-04-29T21:41:42.323Z,5.03
2018-04-29T21:44:09.048Z,5.20
2018-04-29T21:46:35.777Z,5.90
2018-04-29T21:49:02.487Z,4.83
2018-04-29T21:51:29.334Z,4.97
2018-04-29T21:53:56.053Z,5.27
2018-04-29T21:56:22.776Z,4.77
2018-04-29T21:58:49.768Z,5.30
2018-04-29T22:01:16.606Z,4.60
2018-04-29T22:03:43.342Z,4.90
2018-04-29T22:06:10.112Z,5.07
2018-04-29T22:08:36.877Z,5.70
2018-04-29T22:11:03.665Z,5.73
2018-04-29T22:13:30.425Z,5.53
2018-04-29T22:15:57.198Z,4.47
2018-04-29T22:18:24.006Z,4.37
2018-04-29T22:20:50.693Z,3.40
2018-04-29T22:23:17.389Z,3.53
2018-04-29T22:25:44.132Z,3.30
2018-04-29T22:28:10.849Z,3.67
2018-04-29T22:30:37.571Z,3.97
2018-04-29T22:33:04.252Z,4.23
2018-04-29T22:35:30.988Z,4.10
2018-04-29T22:37:57.693Z,4.10
2018-04-29T22:40:24.370Z,4.00
2018-04-29T22:42:51.193Z,3.67
2018-04-29T22:45:17.895Z,3.47
2018-04-29T22:47:44.597Z,3.73
2018-04-29T22:50:11.269Z,3.50
2018-04-29T22:52:38.025Z,2.90
2018-04-29T22:55:04.777Z,2.73
2018-04-29T22:57:31.477Z,2.50
2018-04-29T22:59:58.213Z,2.50
2018-04-29T23:02:24.894Z,2.10
2018-04-29T23:04:51.862Z,2.10
2018-04-29T23:07:18.581Z,2.30
2018-04-29T23:09:45.400Z,2.13
2018-04-29T23:12:12.201Z,1.80
2018-04-29T23:14:39.082Z,1.57
2018-04-29T23:17:05.837Z,1.67
2018-04-29T23:19:32.563Z,1.40
2018-04-29T23:21:59.279Z,1.10
2018-04-29T23:24:26.021Z,1.57
2018-04-29T23:26:52.710Z,1.47
2018-04-29T23:29:19.461Z,1.20
2018-04-29T23:31:46.212Z,1.17
2018-04-29T23:34:12.913Z,1.30
2018-04-29T23:36:39.589Z,1.50
2018-04-29T23:39:06.336Z,1.00
2018-04-29T23:41:33.129Z,1.40
2018-04-29T23:43:59.826Z,0.70
2018-04-29T23:46:29.156Z,1.07
2018-04-29T23:48:55.862Z,1.00
2018-04-29T23:51:22.632Z,0.90
2018-04-29T23:53:49.437Z,0.97
2018-04-29T23:56:16.145Z,0.60
2018-04-29T23:58:42.905Z,1.20
